Time,TemperatureF,DewpointF,PressureIn,WindDirection,WindDirectionDegrees,WindSpeedMPH,WindSpeedGustMPH,Humidity,HourlyPrecipIn,Conditions,Clouds,dailyrainin,SoftwareType,DateUTC
2013-02-13 00:02:00,28.0,24.0,29.69,West,259,3.0,6.0,84,0.00,,,0.00,,2013-02-13 07:02:00,
2013-02-13 00:11:00,28.0,24.0,29.69,West,259,3.0,6.0,84,0.00,,,0.00,,2013-02-13 07:11:00,
2013-02-13 00:21:00,28.0,24.0,29.69,West,259,3.0,6.0,84,0.00,,,0.00,,2013-02-13 07:21:00,
2013-02-13 00:32:00,28.0,24.0,29.69,West,259,3.0,6.0,84,0.00,,,0.00,,2013-02-13 07:32:00,
2013-02-13 00:41:00,28.0,24.0,29.69,West,259,3.0,6.0,84,0.00,,,0.00,,2013-02-13 07:41:00,
2013-02-13 01:01:00,30.0,24.0,29.65,WSW,257,0.0,2.0,78,0.00,,,0.00,,2013-02-13 08:01:00,
2013-02-13 01:11:00,30.0,24.0,29.65,WSW,257,0.0,2.0,78,0.00,,,0.00,,2013-02-13 08:11:00,
2013-02-13 01:21:00,30.0,24.0,29.65,WSW,257,1.0,2.0,78,0.00,,,0.00,,2013-02-13 08:21:00,
2013-02-13 01:32:00,30.0,24.0,29.65,WSW,257,0.0,0.0,78,0.00,,,0.00,,2013-02-13 08:32:00,
2013-02-13 01:43:00,30.0,24.0,29.65,WSW,257,0.0,0.0,78,0.00,,,0.00,,2013-02-13 08:43:00,
2013-02-13 01:52:00,30.0,24.0,29.65,WSW,257,0.0,0.0,78,0.00,,,0.00,,2013-02-13 08:52:00,
2013-02-13 02:01:00,31.0,25.0,29.64,WSW,257,3.0,6.0,79,0.00,,,0.00,,2013-02-13 09:01:00,
2013-02-13 02:11:00,31.0,25.0,29.64,WSW,257,3.0,6.0,79,0.00,,,0.00,,2013-02-13 09:11:00,
2013-02-13 02:21:00,32.0,26.0,29.64,WSW,257,3.0,5.0,78,0.00,,,0.00,,2013-02-13 09:21:00,
2013-02-13 02:31:00,32.0,26.0,29.63,West,266,4.0,9.0,78,0.00,,,0.00,,2013-02-13 09:31:00,
2013-02-13 02:41:00,33.0,27.0,29.62,WNW,286,3.0,6.0,77,0.00,,,0.00,,2013-02-13 09:41:00,
2013-02-13 02:52:00,33.0,27.0,29.62,WNW,286,3.0,6.0,77,0.00,,,0.00,,2013-02-13 09:52:00,
2013-02-13 03:01:00,33.0,27.0,29.62,WNW,286,3.0,6.0,77,0.00,,,0.00,,2013-02-13 10:01:00,
2013-02-13 03:11:00,33.0,26.0,29.62,WSW,258,3.0,9.0,76,0.00,,,0.00,,2013-02-13 10:11:00,
2013-02-13 03:21:00,33.0,26.0,29.62,WSW,258,3.0,9.0,76,0.00,,,0.00,,2013-02-13 10:21:00,
2013-02-13 03:32:00,34.0,27.0,29.62,WSW,253,4.0,9.0,76,0.00,,,0.00,,2013-02-13 10:32:00,
2013-02-13 03:42:00,35.0,28.0,29.62,WSW,254,9.0,14.0,75,0.00,,,0.00,,2013-02-13 10:42:00,
2013-02-13 03:52:00,35.0,28.0,29.62,WSW,254,9.0,14.0,75,0.00,,,0.00,,2013-02-13 10:52:00,
2013-02-13 04:01:00,36.0,29.0,29.62,West,274,10.0,14.0,75,0.00,,,0.00,,2013-02-13 11:01:00,
2013-02-13 04:11:00,36.0,29.0,29.62,West,274,10.0,14.0,75,0.00,,,0.00,,2013-02-13 11:11:00,
2013-02-13 04:22:00,38.0,30.0,29.61,West,272,18.0,26.0,72,0.00,,,0.00,,2013-02-13 11:22:00,
2013-02-13 04:32:00,39.0,30.0,29.62,West,270,16.0,26.0,69,0.00,,,0.00,,2013-02-13 11:32:00,
2013-02-13 04:42:00,39.0,30.0,29.62,WNW,284,12.0,23.0,69,0.00,,,0.00,,2013-02-13 11:42:00,
2013-02-13 04:52:00,39.0,30.0,29.62,WNW,284,12.0,23.0,69,0.00,,,0.00,,2013-02-13 11:52:00,
2013-02-13 05:02:00,39.0,30.0,29.62,West,263,10.0,18.0,70,0.00,,,0.00,,2013-02-13 12:02:00,
2013-02-13 05:11:00,39.0,30.0,29.62,WSW,246,12.0,20.0,69,0.00,,,0.00,,2013-02-13 12:11:00,
2013-02-13 05:22:00,39.0,30.0,29.62,WSW,246,12.0,20.0,69,0.00,,,0.00,,2013-02-13 12:22:00,
2013-02-13 05:32:00,39.0,29.0,29.62,WSW,248,14.0,24.0,67,0.00,,,0.00,,2013-02-13 12:32:00,
2013-02-13 05:42:00,39.0,29.0,29.62,WSW,248,14.0,24.0,67,0.00,,,0.00,,2013-02-13 12:42:00,
2013-02-13 05:52:00,39.0,29.0,29.62,WSW,248,14.0,24.0,67,0.00,,,0.00,,2013-02-13 12:52:00,
2013-02-13 06:02:00,39.0,29.0,29.63,SW,232,9.0,14.0,67,0.00,,,0.00,,2013-02-13 13:02:00,
2013-02-13 06:11:00,39.0,29.0,29.63,SW,232,9.0,14.0,67,0.00,,,0.00,,2013-02-13 13:11:00,
2013-02-13 06:21:00,39.0,30.0,29.63,WSW,249,10.0,17.0,69,0.00,,,0.00,,2013-02-13 13:21:00,
2013-02-13 06:32:00,39.0,29.0,29.63,WSW,254,9.0,16.0,68,0.00,,,0.00,,2013-02-13 13:32:00,
2013-02-13 06:41:00,38.0,28.0,29.63,WSW,251,9.0,15.0,68,0.00,,,0.00,,2013-02-13 13:41:00,
2013-02-13 06:52:00,38.0,28.0,29.63,WSW,251,9.0,15.0,68,0.00,,,0.00,,2013-02-13 13:52:00,
2013-02-13 07:01:00,38.0,29.0,29.63,SW,228,7.0,14.0,69,0.00,,,0.00,,2013-02-13 14:01:00,
2013-02-13 07:11:00,38.0,29.0,29.63,SW,228,7.0,14.0,69,0.00,,,0.00,,2013-02-13 14:11:00,
2013-02-13 07:21:00,37.0,28.0,29.64,WSW,237,7.0,13.0,71,0.00,,,0.00,,2013-02-13 14:21:00,
2013-02-13 07:31:00,37.0,28.0,29.64,WSW,244,7.0,13.0,71,0.00,,,0.00,,2013-02-13 14:31:00,
2013-02-13 07:41:00,37.0,28.0,29.64,WSW,244,7.0,13.0,71,0.00,,,0.00,,2013-02-13 14:41:00,
2013-02-13 07:52:00,37.0,28.0,29.64,WSW,244,7.0,13.0,71,0.00,,,0.00,,2013-02-13 14:52:00,
2013-02-13 08:01:00,37.0,29.0,29.65,WSW,251,9.0,14.0,72,0.00,,,0.00,,2013-02-13 15:01:00,
2013-02-13 08:11:00,37.0,28.0,29.65,WSW,255,5.0,13.0,71,0.00,,,0.00,,2013-02-13 15:11:00,
2013-02-13 08:21:00,37.0,28.0,29.65,WSW,255,5.0,13.0,71,0.00,,,0.00,,2013-02-13 15:21:00,
2013-02-13 08:32:00,37.0,28.0,29.65,WSW,255,5.0,13.0,71,0.00,,,0.00,,2013-02-13 15:32:00,
2013-02-13 08:42:00,37.0,28.0,29.65,WSW,255,5.0,13.0,71,0.00,,,0.00,,2013-02-13 15:42:00,
2013-02-13 08:52:00,37.0,28.0,29.65,WSW,253,3.0,9.0,70,0.00,,,0.00,,2013-02-13 15:52:00,
2013-02-13 09:01:00,38.0,29.0,29.67,WNW,284,7.0,15.0,69,0.00,,,0.00,,2013-02-13 16:01:00,
2013-02-13 09:11:00,38.0,28.0,29.67,West,266,5.0,13.0,67,0.00,,,0.00,,2013-02-13 16:11:00,
2013-02-13 09:21:00,38.0,28.0,29.67,West,266,5.0,13.0,67,0.00,,,0.00,,2013-02-13 16:21:00,
2013-02-13 09:31:00,38.0,28.0,29.67,West,262,7.0,13.0,68,0.00,,,0.00,,2013-02-13 16:31:00,
2013-02-13 09:42:00,38.0,28.0,29.67,West,262,7.0,13.0,68,0.00,,,0.00,,2013-02-13 16:42:00,
2013-02-13 09:52:00,38.0,28.0,29.68,WSW,252,6.0,12.0,68,0.00,,,0.00,,2013-02-13 16:52:00,
2013-02-13 10:01:00,38.0,28.0,29.68,West,259,6.0,12.0,68,0.00,,,0.00,,2013-02-13 17:01:00,
2013-02-13 10:11:00,38.0,28.0,29.68,West,259,6.0,12.0,68,0.00,,,0.00,,2013-02-13 17:11:00,
2013-02-13 10:21:00,38.0,28.0,29.68,West,259,6.0,12.0,68,0.00,,,0.00,,2013-02-13 17:21:00,
2013-02-13 10:31:00,38.0,29.0,29.68,WSW,249,6.0,12.0,69,0.00,,,0.00,,2013-02-13 17:31:00,
2013-02-13 10:41:00,38.0,29.0,29.68,WSW,249,6.0,12.0,69,0.00,,,0.00,,2013-02-13 17:41:00,
2013-02-13 10:52:00,38.0,29.0,29.68,WSW,255,8.0,15.0,69,0.00,,,0.00,,2013-02-13 17:52:00,
2013-02-13 11:01:00,38.0,29.0,29.68,WSW,255,8.0,15.0,69,0.00,,,0.00,,2013-02-13 18:01:00,
2013-02-13 11:11:00,38.0,29.0,29.68,WSW,255,8.0,15.0,69,0.00,,,0.00,,2013-02-13 18:11:00,
2013-02-13 11:22:00,39.0,30.0,29.72,WSW,255,12.0,20.0,69,0.00,,,0.00,,2013-02-13 18:22:00,
2013-02-13 11:32:00,39.0,30.0,29.72,WSW,255,10.0,20.0,69,0.00,,,0.00,,2013-02-13 18:32:00,
2013-02-13 11:42:00,39.0,30.0,29.72,WSW,255,10.0,20.0,69,0.00,,,0.00,,2013-02-13 18:42:00,
2013-02-13 11:52:00,39.0,30.0,29.72,West,273,12.0,25.0,69,0.00,,,0.00,,2013-02-13 18:52:00,
2013-02-13 12:01:00,39.0,30.0,29.72,West,273,12.0,25.0,69,0.00,,,0.00,,2013-02-13 19:01:00,
2013-02-13 12:11:00,39.0,30.0,29.72,West,273,12.0,25.0,69,0.00,,,0.00,,2013-02-13 19:11:00,
2013-02-13 12:21:00,39.0,30.0,29.72,West,273,12.0,25.0,69,0.00,,,0.00,,2013-02-13 19:21:00,
2013-02-13 12:31:00,40.0,30.0,29.73,WSW,258,13.0,21.0,66,0.00,,,0.00,,2013-02-13 19:31:00,
2013-02-13 12:42:00,40.0,30.0,29.73,WSW,258,13.0,21.0,66,0.00,,,0.00,,2013-02-13 19:42:00,
2013-02-13 12:52:00,40.0,29.0,29.73,West,264,13.0,21.0,65,0.00,,,0.00,,2013-02-13 19:52:00,
2013-02-13 13:02:00,39.0,29.0,29.73,West,265,12.0,22.0,66,0.00,,,0.00,,2013-02-13 20:02:00,
2013-02-13 13:11:00,40.0,29.0,29.73,West,262,13.0,20.0,64,0.00,,,0.00,,2013-02-13 20:11:00,
2013-02-13 13:21:00,40.0,29.0,29.73,West,262,13.0,20.0,64,0.00,,,0.00,,2013-02-13 20:21:00,
2013-02-13 13:31:00,40.0,28.0,29.73,West,268,12.0,17.0,63,0.00,,,0.00,,2013-02-13 20:31:00,
2013-02-13 13:42:00,41.0,28.0,29.74,West,269,14.0,21.0,60,0.00,,,0.00,,2013-02-13 20:42:00,
2013-02-13 13:52:00,41.0,28.0,29.74,West,269,14.0,21.0,60,0.00,,,0.00,,2013-02-13 20:52:00,
2013-02-13 14:01:00,41.0,28.0,29.74,West,267,14.0,20.0,60,0.00,,,0.00,,2013-02-13 21:01:00,
2013-02-13 14:11:00,41.0,28.0,29.74,West,267,14.0,20.0,60,0.00,,,0.00,,2013-02-13 21:11:00,
2013-02-13 14:21:00,41.0,28.0,29.74,WSW,255,12.0,20.0,59,0.00,,,0.00,,2013-02-13 21:21:00,
2013-02-13 14:31:00,40.0,27.0,29.76,West,264,14.0,23.0,59,0.00,,,0.00,,2013-02-13 21:31:00,
2013-02-13 14:42:00,40.0,28.0,29.76,West,279,18.0,29.0,62,0.00,,,0.00,,2013-02-13 21:42:00,
2013-02-13 14:52:00,40.0,28.0,29.76,West,279,18.0,29.0,62,0.00,,,0.00,,2013-02-13 21:52:00,
2013-02-13 15:02:00,40.0,28.0,29.76,West,279,18.0,29.0,62,0.00,,,0.00,,2013-02-13 22:02:00,
2013-02-13 15:11:00,39.0,28.0,29.78,WSW,257,14.0,29.0,65,0.00,,,0.00,,2013-02-13 22:11:00,
2013-02-13 15:21:00,39.0,28.0,29.78,WSW,257,14.0,29.0,65,0.00,,,0.00,,2013-02-13 22:21:00,
2013-02-13 15:31:00,39.0,28.0,29.78,WSW,257,14.0,29.0,65,0.00,,,0.00,,2013-02-13 22:31:00,
2013-02-13 15:42:00,39.0,28.0,29.78,WSW,257,14.0,29.0,65,0.00,,,0.00,,2013-02-13 22:42:00,
2013-02-13 15:52:00,39.0,28.0,29.78,WSW,257,14.0,29.0,65,0.00,,,0.00,,2013-02-13 22:52:00,
2013-02-13 16:01:00,39.0,28.0,29.78,WSW,257,14.0,29.0,65,0.00,,,0.00,,2013-02-13 23:01:00,
2013-02-13 16:11:00,38.0,28.0,29.81,West,272,16.0,22.0,67,0.00,,,0.00,,2013-02-13 23:11:00,
2013-02-13 16:22:00,38.0,28.0,29.81,West,272,16.0,22.0,67,0.00,,,0.00,,2013-02-13 23:22:00,
2013-02-13 16:32:00,38.0,28.0,29.81,West,272,16.0,22.0,67,0.00,,,0.00,,2013-02-13 23:32:00,
2013-02-13 16:42:00,38.0,28.0,29.81,West,272,16.0,22.0,67,0.00,,,0.00,,2013-02-13 23:42:00,
2013-02-13 16:52:00,38.0,28.0,29.81,West,272,16.0,22.0,67,0.00,,,0.00,,2013-02-13 23:52:00,
2013-02-13 17:01:00,37.0,24.0,29.82,West,274,18.0,28.0,60,0.00,,,0.00,,2013-02-14 00:01:00,
2013-02-13 17:11:00,37.0,24.0,29.82,West,274,18.0,28.0,60,0.00,,,0.00,,2013-02-14 00:11:00,
2013-02-13 17:21:00,36.0,23.0,29.82,WNW,285,17.0,32.0,59,0.00,,,0.00,,2013-02-14 00:21:00,
2013-02-13 17:32:00,36.0,23.0,29.82,WNW,285,17.0,32.0,59,0.00,,,0.00,,2013-02-14 00:32:00,
2013-02-13 17:42:00,36.0,23.0,29.82,WNW,285,17.0,32.0,59,0.00,,,0.00,,2013-02-14 00:42:00,
2013-02-13 17:52:00,35.0,23.0,29.83,West,268,13.0,24.0,60,0.00,,,0.00,,2013-02-14 00:52:00,
2013-02-13 18:01:00,35.0,23.0,29.83,West,268,13.0,24.0,60,0.00,,,0.00,,2013-02-14 01:01:00,
2013-02-13 18:11:00,35.0,23.0,29.83,West,268,13.0,24.0,60,0.00,,,0.00,,2013-02-14 01:11:00,
2013-02-13 18:21:00,34.0,20.0,29.87,West,276,19.0,28.0,56,0.00,,,0.00,,2013-02-14 01:21:00,
2013-02-13 18:31:00,34.0,21.0,29.87,West,277,13.0,28.0,58,0.00,,,0.00,,2013-02-14 01:31:00,
2013-02-13 18:42:00,34.0,21.0,29.87,West,277,13.0,28.0,58,0.00,,,0.00,,2013-02-14 01:42:00,
2013-02-13 18:52:00,34.0,21.0,29.87,WSW,256,16.0,24.0,59,0.00,,,0.00,,2013-02-14 01:52:00,
2013-02-13 19:01:00,33.0,21.0,29.87,WNW,282,12.0,20.0,60,0.00,,,0.00,,2013-02-14 02:01:00,
2013-02-13 19:11:00,33.0,21.0,29.87,WNW,282,12.0,20.0,60,0.00,,,0.00,,2013-02-14 02:11:00,
2013-02-13 19:21:00,33.0,21.0,29.87,WNW,282,12.0,20.0,60,0.00,,,0.00,,2013-02-14 02:21:00,
2013-02-13 19:31:00,32.0,19.0,29.87,West,267,16.0,26.0,59,0.00,,,0.00,,2013-02-14 02:31:00,
2013-02-13 19:41:00,32.0,19.0,29.87,West,267,16.0,26.0,59,0.00,,,0.00,,2013-02-14 02:41:00,
2013-02-13 19:52:00,32.0,19.0,29.87,West,267,16.0,26.0,59,0.00,,,0.00,,2013-02-14 02:52:00,
2013-02-13 20:02:00,32.0,20.0,29.88,West,281,20.0,32.0,61,0.00,,,0.00,,2013-02-14 03:02:00,
2013-02-13 20:11:00,31.0,20.0,29.88,West,280,16.0,29.0,63,0.00,,,0.00,,2013-02-14 03:11:00,
2013-02-13 20:21:00,31.0,20.0,29.88,West,280,16.0,29.0,63,0.00,,,0.00,,2013-02-14 03:21:00,
2013-02-13 20:31:00,31.0,20.0,29.88,West,274,16.0,25.0,64,0.00,,,0.00,,2013-02-14 03:31:00,
2013-02-13 20:42:00,31.0,20.0,29.88,West,274,16.0,25.0,64,0.00,,,0.00,,2013-02-14 03:42:00,
2013-02-13 20:52:00,31.0,20.0,29.88,West,274,16.0,25.0,64,0.00,,,0.00,,2013-02-14 03:52:00,
2013-02-13 21:01:00,31.0,20.0,29.88,West,274,16.0,25.0,64,0.00,,,0.00,,2013-02-14 04:01:00,
2013-02-13 21:11:00,31.0,20.0,29.88,West,274,16.0,25.0,64,0.00,,,0.00,,2013-02-14 04:11:00,
2013-02-13 21:32:00,30.0,20.0,29.90,WSW,249,16.0,29.0,65,0.00,,,0.00,,2013-02-14 04:32:00,
2013-02-13 21:42:00,30.0,20.0,29.90,WSW,249,16.0,29.0,65,0.00,,,0.00,,2013-02-14 04:42:00,
2013-02-13 21:52:00,30.0,20.0,29.90,West,268,18.0,28.0,65,0.00,,,0.00,,2013-02-14 04:52:00,
2013-02-13 22:02:00,30.0,20.0,29.91,WSW,257,18.0,26.0,65,0.00,,,0.00,,2013-02-14 05:02:00,
2013-02-13 22:11:00,30.0,20.0,29.91,WSW,257,18.0,26.0,65,0.00,,,0.00,,2013-02-14 05:11:00,
2013-02-13 22:21:00,30.0,20.0,29.91,WSW,256,17.0,29.0,67,0.00,,,0.00,,2013-02-14 05:21:00,
2013-02-13 22:31:00,30.0,20.0,29.91,WSW,256,17.0,29.0,67,0.00,,,0.00,,2013-02-14 05:31:00,
2013-02-13 22:41:00,30.0,20.0,29.91,WSW,256,17.0,29.0,67,0.00,,,0.00,,2013-02-14 05:41:00,
2013-02-13 22:52:00,30.0,20.0,29.91,WSW,256,17.0,29.0,67,0.00,,,0.00,,2013-02-14 05:52:00,
2013-02-13 23:02:00,30.0,20.0,29.91,WSW,256,17.0,29.0,67,0.00,,,0.00,,2013-02-14 06:02:00,
2013-02-13 23:11:00,30.0,22.0,29.92,West,259,15.0,26.0,73,0.00,,,0.00,,2013-02-14 06:11:00,
2013-02-13 23:22:00,30.0,22.0,29.92,West,259,15.0,26.0,73,0.00,,,0.00,,2013-02-14 06:22:00,
2013-02-13 23:32:00,30.0,22.0,29.92,West,259,15.0,26.0,73,0.00,,,0.00,,2013-02-14 06:32:00,
2013-02-13 23:42:00,30.0,22.0,29.92,West,259,15.0,26.0,73,0.00,,,0.00,,2013-02-14 06:42:00,
2013-02-13 23:52:00,30.0,23.0,29.93,WSW,248,16.0,30.0,75,0.00,,,0.00,,2013-02-14 06:52:00,